Time;durP1;ratioP1;P1;durP2;ratioP2;P2;SDS_P1;SDS_P2;PMS_P1;PMS_P2;Temp;Humidity;BMP_temperature;BMP_pressure;BME280_temperature;BME280_humidity;BME280_pressure;Samples;Min_cycle;Max_cycle;Signal;HPM_P1;HPM_P2
2021/09/24 00:00:57;;;;;;;4.00;2.63;;;17.20;99.70;;;;;;5108992;28;20024;-73
2021/09/24 00:03:23;;;;;;;3.53;2.20;;;17.10;99.90;;;;;;5110195;28;20062;-72
2021/09/24 00:05:50;;;;;;;7.05;2.63;;;17.30;99.90;;;;;;5112216;28;20036;-73
2021/09/24 00:08:16;;;;;;;4.15;2.47;;;17.30;99.90;;;;;;5112873;28;20024;-73
2021/09/24 00:10:42;;;;;;;5.18;2.60;;;17.30;99.90;;;;;;5112229;28;20020;-72
2021/09/24 00:13:08;;;;;;;6.70;2.53;;;17.10;99.90;;;;;;5114200;28;20032;-72
2021/09/24 00:15:34;;;;;;;6.82;2.40;;;17.10;99.90;;;;;;5112424;28;20026;-73
2021/09/24 00:17:59;;;;;;;3.58;2.80;;;16.90;99.90;;;;;;5112813;28;20026;-72
2021/09/24 00:20:26;;;;;;;6.03;3.72;;;16.80;99.90;;;;;;5112385;28;20385;-72
2021/09/24 00:22:52;;;;;;;5.78;2.95;;;16.80;99.90;;;;;;5113664;28;20433;-72
2021/09/24 00:25:17;;;;;;;5.65;3.28;;;16.80;99.90;;;;;;5113892;28;20081;-72
2021/09/24 00:27:43;;;;;;;4.53;3.28;;;16.70;99.90;;;;;;5111950;28;20024;-73
2021/09/24 00:30:10;;;;;;;3.78;2.97;;;16.70;99.90;;;;;;5112455;28;20075;-72
2021/09/24 00:32:36;;;;;;;5.25;3.13;;;16.70;99.90;;;;;;5113074;28;20106;-73
2021/09/24 00:35:03;;;;;;;10.43;3.17;;;16.80;99.90;;;;;;5112513;28;20526;-72
2021/09/24 00:37:28;;;;;;;4.70;3.08;;;16.80;99.90;;;;;;5113134;28;20487;-73
2021/09/24 00:39:54;;;;;;;3.33;2.85;;;16.80;99.90;;;;;;5113882;28;20024;-73
2021/09/24 00:42:20;;;;;;;4.15;2.70;;;16.70;99.90;;;;;;5113626;28;20041;-72
2021/09/24 00:44:49;;;;;;;4.25;2.75;;;16.70;99.90;;;;;;5112007;28;20441;-72
2021/09/24 00:47:15;;;;;;;3.97;3.00;;;16.70;99.90;;;;;;5112486;28;20118;-72
2021/09/24 00:49:41;;;;;;;8.90;2.85;;;16.80;99.90;;;;;;5111506;28;20055;-73
2021/09/24 00:52:07;;;;;;;5.30;2.47;;;16.80;99.90;;;;;;5113701;28;20083;-72
2021/09/24 00:54:33;;;;;;;3.00;2.58;;;16.90;99.90;;;;;;5113044;28;20038;-72
2021/09/24 00:57:03;;;;;;;5.95;2.53;;;16.90;99.90;;;;;;5112105;28;20465;-72
2021/09/24 00:59:29;;;;;;;4.75;2.40;;;16.80;99.90;;;;;;5111525;28;20111;-75
2021/09/24 01:01:58;;;;;;;5.88;2.70;;;16.80;99.90;;;;;;5111108;28;20119;-71
2021/09/24 01:04:25;;;;;;;4.38;2.83;;;16.80;99.90;;;;;;5113454;28;20073;-71
2021/09/24 01:06:51;;;;;;;4.78;2.47;;;16.80;99.90;;;;;;5112684;28;20365;-72
2021/09/24 01:09:18;;;;;;;7.65;2.75;;;16.90;99.90;;;;;;5112940;28;20035;-72
2021/09/24 01:11:43;;;;;;;4.88;2.35;;;16.80;99.90;;;;;;5112622;28;20035;-71
2021/09/24 01:14:09;;;;;;;2.97;2.08;;;16.80;99.90;;;;;;5111387;28;20028;-72
2021/09/24 01:16:35;;;;;;;4.07;2.63;;;16.90;99.90;;;;;;5110603;28;20118;-72
2021/09/24 01:19:01;;;;;;;3.50;2.35;;;16.80;99.90;;;;;;5113149;28;20034;-71
2021/09/24 01:21:26;;;;;;;5.15;2.72;;;16.80;99.90;;;;;;5112552;28;20147;-73
2021/09/24 01:23:52;;;;;;;4.10;2.47;;;16.80;99.90;;;;;;5112088;28;20069;-70
2021/09/24 01:26:18;;;;;;;3.85;2.40;;;16.80;99.90;;;;;;5112545;28;20039;-70
2021/09/24 01:28:44;;;;;;;4.80;2.67;;;16.80;99.90;;;;;;5110509;28;20027;-71
2021/09/24 01:31:12;;;;;;;5.88;2.72;;;16.80;99.90;;;;;;5111304;28;20431;-72
2021/09/24 01:33:46;;;;;;;4.63;2.50;;;16.80;99.90;;;;;;5111793;28;20028;-72
2021/09/24 01:36:12;;;;;;;7.32;3.00;;;16.80;99.90;;;;;;5111254;28;20027;-72
2021/09/24 01:38:38;;;;;;;6.22;2.70;;;16.80;99.90;;;;;;5111667;28;20032;-73
2021/09/24 01:41:06;;;;;;;3.08;2.13;;;16.80;99.90;;;;;;5112392;28;20051;-73
2021/09/24 01:43:34;;;;;;;4.63;2.45;;;16.70;99.90;;;;;;5111921;28;20042;-80
2021/09/24 01:46:00;;;;;;;3.00;2.45;;;16.70;99.90;;;;;;5112352;28;20437;-72
2021/09/24 01:48:26;;;;;;;6.13;2.42;;;16.70;99.90;;;;;;5110846;28;20024;-72
2021/09/24 01:50:51;;;;;;;7.22;2.60;;;16.60;99.90;;;;;;5111682;28;20598;-72
2021/09/24 01:53:17;;;;;;;5.53;2.33;;;16.60;99.90;;;;;;5112439;28;20028;-71
2021/09/24 01:55:43;;;;;;;4.72;2.30;;;16.60;99.90;;;;;;5111260;28;20028;-71
2021/09/24 01:58:08;;;;;;;8.00;2.80;;;16.60;99.90;;;;;;5110635;28;20023;-71
2021/09/24 02:00:34;;;;;;;4.78;2.95;;;16.70;99.90;;;;;;5111697;28;20024;-72
2021/09/24 02:03:00;;;;;;;3.70;2.40;;;16.70;99.90;;;;;;5111884;28;20039;-73
2021/09/24 02:05:25;;;;;;;4.72;2.58;;;16.70;99.90;;;;;;5110623;28;20126;-73
2021/09/24 02:07:51;;;;;;;4.18;2.40;;;16.70;99.90;;;;;;5109982;28;20322;-72
2021/09/24 02:10:17;;;;;;;4.75;2.58;;;16.60;99.90;;;;;;5110578;28;20027;-72
2021/09/24 02:12:42;;;;;;;3.35;2.35;;;16.70;99.90;;;;;;5110203;28;20211;-73
2021/09/24 02:15:09;;;;;;;3.75;2.53;;;16.70;99.90;;;;;;5111704;28;20031;-72
2021/09/24 02:17:35;;;;;;;4.07;2.33;;;16.70;99.90;;;;;;5109966;28;20149;-73
2021/09/24 02:20:00;;;;;;;9.73;2.80;;;16.70;99.90;;;;;;5098436;28;20099;-72
2021/09/24 02:22:26;;;;;;;3.55;2.78;;;16.60;99.90;;;;;;5076000;28;20044;-71
2021/09/24 02:24:52;;;;;;;3.92;3.40;;;16.70;99.90;;;;;;5070742;28;20084;-72
2021/09/24 02:27:18;;;;;;;6.03;3.25;;;16.70;99.90;;;;;;5071796;28;20442;-72
2021/09/24 02:29:44;;;;;;;4.10;2.75;;;16.60;99.90;;;;;;5090503;28;20362;-72
2021/09/24 02:32:09;;;;;;;5.03;2.22;;;16.60;99.90;;;;;;5091088;28;20096;-72
2021/09/24 02:34:35;;;;;;;3.88;2.75;;;16.60;99.90;;;;;;5091623;28;20036;-75
2021/09/24 02:37:01;;;;;;;7.95;2.95;;;16.50;99.90;;;;;;5090320;28;20115;-71
2021/09/24 02:39:26;;;;;;;4.72;2.70;;;16.60;99.90;;;;;;5090847;28;20107;-71
2021/09/24 02:41:52;;;;;;;4.60;2.78;;;16.60;99.90;;;;;;5090284;28;20392;-71
2021/09/24 02:44:18;;;;;;;4.60;2.70;;;16.50;99.90;;;;;;5091426;28;20069;-71
2021/09/24 02:46:43;;;;;;;3.25;2.83;;;16.50;99.90;;;;;;5090541;28;20035;-71
2021/09/24 02:49:09;;;;;;;5.60;2.88;;;16.50;99.90;;;;;;5091078;28;20023;-71
2021/09/24 02:51:35;;;;;;;3.60;2.80;;;16.40;99.90;;;;;;5089330;28;20032;-71
2021/09/24 02:54:01;;;;;;;3.22;2.92;;;16.40;99.90;;;;;;5091097;28;20039;-71
2021/09/24 02:56:27;;;;;;;4.10;2.78;;;16.50;99.90;;;;;;5089271;28;20028;-71
2021/09/24 02:58:53;;;;;;;3.90;2.83;;;16.50;99.90;;;;;;5090399;28;20098;-70
2021/09/24 03:01:18;;;;;;;5.72;3.80;;;16.50;99.90;;;;;;5090755;28;20032;-71
2021/09/24 03:03:44;;;;;;;5.93;2.78;;;16.50;99.90;;;;;;5090092;28;20081;-70
2021/09/24 03:06:09;;;;;;;5.18;3.05;;;16.40;99.90;;;;;;5089370;28;20028;-70
2021/09/24 03:08:35;;;;;;;5.65;3.50;;;16.40;99.90;;;;;;5089420;28;20024;-71
2021/09/24 03:11:01;;;;;;;4.78;3.47;;;16.40;99.90;;;;;;5088560;28;20024;-71
2021/09/24 03:13:26;;;;;;;6.25;3.53;;;16.40;99.90;;;;;;5089474;28;20058;-71
2021/09/24 03:15:54;;;;;;;7.55;3.15;;;16.30;99.90;;;;;;5090009;28;20036;-71
2021/09/24 03:18:20;;;;;;;5.63;2.80;;;16.40;99.90;;;;;;5089234;28;20024;-71
2021/09/24 03:20:45;;;;;;;4.35;3.03;;;16.40;99.90;;;;;;5088560;28;20031;-71
2021/09/24 03:23:11;;;;;;;7.22;3.00;;;16.40;99.90;;;;;;5090633;28;20048;-70
2021/09/24 03:25:37;;;;;;;5.60;4.13;;;16.40;99.90;;;;;;5088833;28;20382;-70
2021/09/24 03:28:03;;;;;;;4.43;3.15;;;16.40;99.90;;;;;;5089350;28;20389;-71
2021/09/24 03:30:29;;;;;;;7.90;3.47;;;16.40;99.90;;;;;;5090393;28;20028;-71
2021/09/24 03:32:54;;;;;;;4.72;3.15;;;16.20;99.90;;;;;;5089948;28;20029;-72
2021/09/24 03:35:20;;;;;;;8.48;3.08;;;16.10;99.90;;;;;;5090545;28;20084;-71
2021/09/24 03:37:46;;;;;;;5.40;2.92;;;15.60;99.90;;;;;;5088648;28;20371;-72
2021/09/24 03:40:12;;;;;;;6.05;2.97;;;15.50;99.90;;;;;;5094310;28;20028;-71
2021/09/24 03:42:37;;;;;;;3.05;2.67;;;15.40;99.90;;;;;;5094717;28;20035;-72
2021/09/24 03:45:05;;;;;;;8.50;3.22;;;15.40;99.90;;;;;;5094428;28;20032;-71
2021/09/24 03:47:30;;;;;;;6.13;3.00;;;15.40;99.90;;;;;;5092690;28;20032;-72
2021/09/24 03:49:56;;;;;;;4.97;3.22;;;15.20;99.90;;;;;;5092398;28;20031;-72
2021/09/24 03:52:22;;;;;;;3.35;2.83;;;15.20;99.90;;;;;;5094786;28;20020;-72
2021/09/24 03:54:47;;;;;;;6.03;3.13;;;15.20;99.90;;;;;;5092387;28;20137;-73
2021/09/24 03:57:13;;;;;;;7.65;3.30;;;15.20;99.90;;;;;;5094151;28;20016;-73
2021/09/24 03:59:38;;;;;;;5.95;3.63;;;15.30;99.90;;;;;;5093876;28;20111;-73
2021/09/24 04:02:04;;;;;;;4.30;3.53;;;15.30;99.90;;;;;;5092134;28;20024;-72
2021/09/24 04:04:30;;;;;;;5.22;3.22;;;15.30;99.90;;;;;;5093687;28;20461;-73
2021/09/24 04:06:56;;;;;;;6.80;3.28;;;15.30;99.90;;;;;;5091808;28;20464;-73
2021/09/24 04:09:21;;;;;;;5.60;3.38;;;15.30;99.90;;;;;;5092611;28;20111;-72
2021/09/24 04:11:47;;;;;;;7.03;3.10;;;15.30;99.90;;;;;;5093459;28;20424;-73
2021/09/24 04:14:13;;;;;;;3.35;3.05;;;15.30;99.90;;;;;;5093930;28;20103;-73
2021/09/24 04:16:38;;;;;;;7.93;3.30;;;15.30;99.90;;;;;;5092558;28;20519;-73
2021/09/24 04:19:04;;;;;;;5.65;3.38;;;15.30;99.90;;;;;;5093213;28;20028;-72
2021/09/24 04:21:30;;;;;;;5.75;3.67;;;15.10;99.90;;;;;;5092277;28;20485;-72
2021/09/24 04:23:55;;;;;;;5.53;3.47;;;15.10;99.90;;;;;;5091537;28;20043;-72
2021/09/24 04:26:21;;;;;;;9.60;3.75;;;15.00;99.90;;;;;;5092338;28;20028;-73
2021/09/24 04:28:47;;;;;;;5.07;3.28;;;15.00;99.90;;;;;;5091781;28;20036;-73
2021/09/24 04:31:12;;;;;;;8.10;3.00;;;15.00;99.90;;;;;;5093771;28;20039;-72
2021/09/24 04:33:38;;;;;;;7.82;4.22;;;15.00;99.90;;;;;;5093167;28;20024;-72
2021/09/24 04:36:04;;;;;;;7.90;3.63;;;15.00;99.90;;;;;;5092623;28;20425;-72
2021/09/24 04:38:29;;;;;;;7.18;3.40;;;14.90;99.90;;;;;;5093285;28;20024;-72
2021/09/24 04:40:56;;;;;;;8.23;3.65;;;14.90;99.90;;;;;;5092627;28;20036;-72
2021/09/24 04:43:21;;;;;;;8.27;3.58;;;14.90;99.90;;;;;;5091618;28;20462;-72
2021/09/24 04:45:47;;;;;;;7.78;4.28;;;14.90;99.90;;;;;;5090992;28;20105;-72
2021/09/24 04:48:12;;;;;;;8.20;4.07;;;14.90;99.90;;;;;;5091754;28;20073;-71
2021/09/24 04:50:38;;;;;;;3.90;3.50;;;15.00;99.90;;;;;;5091779;28;20223;-72
2021/09/24 04:53:04;;;;;;;5.95;3.40;;;14.90;99.90;;;;;;5090914;28;20032;-73
2021/09/24 04:55:30;;;;;;;6.55;3.58;;;15.00;99.90;;;;;;5092811;28;20028;-71
2021/09/24 04:57:56;;;;;;;6.93;3.72;;;15.00;99.90;;;;;;5090820;28;20462;-73
2021/09/24 05:00:21;;;;;;;6.28;3.78;;;15.00;99.90;;;;;;5091348;28;20081;-74
2021/09/24 05:02:47;;;;;;;7.53;4.05;;;15.00;99.90;;;;;;5092227;28;20099;-72
2021/09/24 05:05:13;;;;;;;6.00;4.25;;;15.00;99.90;;;;;;5091137;28;20127;-72
2021/09/24 05:07:39;;;;;;;6.18;3.28;;;15.00;99.90;;;;;;5091204;28;20127;-73
2021/09/24 05:10:05;;;;;;;9.32;4.20;;;15.10;99.90;;;;;;5090571;28;20024;-73
2021/09/24 05:12:32;;;;;;;6.35;4.05;;;15.10;99.90;;;;;;5092197;28;20146;-73
2021/09/24 05:14:57;;;;;;;7.53;3.97;;;15.20;99.90;;;;;;5090344;28;20043;-73
2021/09/24 05:17:24;;;;;;;6.32;4.13;;;15.20;99.90;;;;;;5092390;28;20406;-73
2021/09/24 05:19:50;;;;;;;5.45;3.67;;;15.30;99.90;;;;;;5090624;28;20028;-73
2021/09/24 05:22:16;;;;;;;14.50;4.18;;;15.20;99.90;;;;;;5090861;28;20039;-73
2021/09/24 05:24:42;;;;;;;5.55;3.97;;;15.20;99.90;;;;;;5092613;28;20101;-73
2021/09/24 05:27:07;;;;;;;6.38;3.83;;;15.20;99.90;;;;;;5090140;28;20024;-72
2021/09/24 05:29:33;;;;;;;7.72;4.53;;;15.20;99.90;;;;;;5090919;28;20028;-72
2021/09/24 05:31:59;;;;;;;10.98;5.07;;;15.20;99.90;;;;;;5090187;28;20024;-72
2021/09/24 05:34:25;;;;;;;7.20;4.38;;;15.20;99.90;;;;;;5090766;28;20108;-72
2021/09/24 05:36:50;;;;;;;6.60;4.07;;;15.20;99.90;;;;;;5089831;28;20024;-72
2021/09/24 05:39:18;;;;;;;9.35;4.85;;;15.20;99.90;;;;;;5090429;28;20100;-74
2021/09/24 05:41:43;;;;;;;8.18;4.22;;;15.30;99.90;;;;;;5090483;28;20138;-74
2021/09/24 05:44:09;;;;;;;11.30;4.90;;;15.30;99.90;;;;;;5090175;28;20402;-73
2021/09/24 05:46:35;;;;;;;8.27;4.68;;;15.30;99.90;;;;;;5090280;28;20399;-72
2021/09/24 05:49:00;;;;;;;10.63;4.40;;;15.30;99.90;;;;;;5089576;28;20076;-72
2021/09/24 05:51:26;;;;;;;8.52;5.47;;;15.30;99.90;;;;;;5092014;28;20046;-72
2021/09/24 05:53:52;;;;;;;9.07;4.50;;;15.20;99.90;;;;;;5090710;28;20036;-72
2021/09/24 05:56:18;;;;;;;8.90;4.55;;;15.20;99.90;;;;;;5090215;28;20024;-72
2021/09/24 05:58:44;;;;;;;8.52;4.50;;;15.10;99.90;;;;;;5090183;28;20035;-73
2021/09/24 06:01:10;;;;;;;12.77;5.80;;;15.10;99.90;;;;;;5088905;28;20077;-72
2021/09/24 06:03:36;;;;;;;7.22;4.68;;;15.00;99.90;;;;;;5091726;28;20085;-72
2021/09/24 06:06:01;;;;;;;12.13;6.38;;;14.90;99.90;;;;;;5089506;28;20485;-72
2021/09/24 06:08:27;;;;;;;7.18;5.03;;;14.90;99.90;;;;;;5089997;28;20408;-71
2021/09/24 06:10:54;;;;;;;12.15;5.28;;;15.00;99.90;;;;;;5089366;28;20081;-72
2021/09/24 06:13:20;;;;;;;9.50;5.07;;;14.90;99.90;;;;;;5090991;28;20085;-73
2021/09/24 06:15:48;;;;;;;9.75;4.70;;;14.90;99.90;;;;;;5090738;28;20346;-73
2021/09/24 06:18:14;;;;;;;6.55;4.90;;;14.80;99.90;;;;;;5090103;28;20132;-73
2021/09/24 06:20:39;;;;;;;13.25;4.90;;;14.80;99.90;;;;;;5089917;28;20460;-72
2021/09/24 06:23:05;;;;;;;10.73;5.03;;;14.80;99.90;;;;;;5088866;28;20152;-73
2021/09/24 06:25:31;;;;;;;7.63;5.10;;;14.90;99.90;;;;;;5089677;28;20060;-72
2021/09/24 06:27:57;;;;;;;9.38;5.35;;;14.80;99.90;;;;;;5090366;28;20123;-74
2021/09/24 06:30:23;;;;;;;12.77;5.82;;;14.60;99.90;;;;;;5090825;28;20032;-73
2021/09/24 06:32:49;;;;;;;10.38;5.13;;;14.80;99.90;;;;;;5089103;28;20071;-82
2021/09/24 06:35:15;;;;;;;7.30;5.18;;;14.80;99.90;;;;;;5089314;28;20039;-73
2021/09/24 06:37:41;;;;;;;5.47;4.72;;;14.90;99.90;;;;;;5089186;28;20059;-74
2021/09/24 06:40:08;;;;;;;8.18;5.20;;;14.90;99.90;;;;;;5088862;28;20028;-73
2021/09/24 06:42:36;;;;;;;11.15;5.68;;;14.90;99.90;;;;;;5091149;28;20028;-73
2021/09/24 06:45:06;;;;;;;7.32;5.72;;;14.90;99.90;;;;;;5090258;28;20028;-73
2021/09/24 06:47:32;;;;;;;11.52;6.13;;;14.80;99.90;;;;;;5090565;28;20028;-73
2021/09/24 06:49:58;;;;;;;12.65;5.28;;;14.80;99.90;;;;;;5088260;28;20024;-73
2021/09/24 06:52:23;;;;;;;11.88;5.47;;;15.00;99.90;;;;;;5088748;28;20035;-73
2021/09/24 06:54:50;;;;;;;10.10;5.82;;;15.10;99.90;;;;;;5089197;28;20118;-72
2021/09/24 06:57:16;;;;;;;13.73;5.68;;;15.20;99.90;;;;;;5089084;28;20040;-72
2021/09/24 06:59:42;;;;;;;11.48;6.30;;;15.20;99.90;;;;;;5089347;28;20028;-73
2021/09/24 07:02:07;;;;;;;13.50;6.00;;;15.10;99.90;;;;;;5088320;28;20435;-73
2021/09/24 07:04:33;;;;;;;9.73;6.03;;;15.10;99.90;;;;;;5089086;28;20362;-72
2021/09/24 07:06:59;;;;;;;11.20;5.47;;;15.00;99.90;;;;;;5088415;28;20115;-73
2021/09/24 07:09:25;;;;;;;11.75;5.65;;;15.10;99.90;;;;;;5090365;28;20039;-73
2021/09/24 07:11:51;;;;;;;11.18;6.18;;;15.20;99.90;;;;;;5089047;28;20031;-71
2021/09/24 07:14:19;;;;;;;10.82;6.05;;;15.40;99.90;;;;;;5093188;28;20027;-72
2021/09/24 07:16:47;;;;;;;14.45;6.53;;;15.10;99.90;;;;;;5093115;28;20028;-73
2021/09/24 07:19:13;;;;;;;10.13;6.45;;;15.20;99.90;;;;;;5092251;28;20032;-72
2021/09/24 07:21:38;;;;;;;12.60;6.95;;;15.20;99.90;;;;;;5092763;28;20463;-72
2021/09/24 07:24:05;;;;;;;8.23;5.25;;;15.20;99.90;;;;;;5092127;28;20039;-72
2021/09/24 07:26:31;;;;;;;6.72;5.80;;;15.10;99.90;;;;;;5094594;28;20111;-72
2021/09/24 07:28:57;;;;;;;13.38;4.90;;;15.20;99.90;;;;;;5093324;28;20032;-73
2021/09/24 07:31:24;;;;;;;16.88;6.15;;;15.00;99.90;;;;;;5092467;28;20369;-72
2021/09/24 07:33:51;;;;;;;10.70;6.00;;;15.10;99.90;;;;;;5092256;28;20382;-72
2021/09/24 07:36:18;;;;;;;7.68;5.68;;;15.20;99.90;;;;;;5093777;28;20377;-72
2021/09/24 07:38:45;;;;;;;13.55;6.15;;;15.30;99.90;;;;;;5092616;28;20145;-72
2021/09/24 07:41:12;;;;;;;15.82;6.20;;;15.20;99.90;;;;;;5092026;28;20027;-74
2021/09/24 07:43:38;;;;;;;9.38;5.68;;;15.30;99.90;;;;;;5093775;28;20024;-72
2021/09/24 07:46:04;;;;;;;7.55;5.63;;;15.50;99.90;;;;;;5093683;28;20031;-72
2021/09/24 07:48:30;;;;;;;11.43;6.85;;;15.50;99.90;;;;;;5092841;28;20031;-71
2021/09/24 07:50:56;;;;;;;10.45;5.93;;;15.50;99.90;;;;;;5093297;28;20418;-72
2021/09/24 07:53:22;;;;;;;10.90;6.15;;;15.50;99.90;;;;;;5094016;28;20456;-73
2021/09/24 07:55:47;;;;;;;12.98;6.30;;;15.50;99.90;;;;;;5092159;28;20036;-72
2021/09/24 07:58:13;;;;;;;10.85;6.22;;;15.50;99.90;;;;;;5093518;28;20766;-73
2021/09/24 08:00:39;;;;;;;13.32;5.70;;;15.60;99.90;;;;;;5093855;28;20422;-73
2021/09/24 08:03:05;;;;;;;6.43;4.55;;;15.60;99.90;;;;;;5084784;28;20125;-66
2021/09/24 08:05:32;;;;;;;12.63;5.93;;;15.90;99.90;;;;;;5093475;28;20065;-66
2021/09/24 08:07:58;;;;;;;10.75;5.10;;;16.40;99.90;;;;;;5092948;28;20107;-65
2021/09/24 08:10:28;;;;;;;12.10;5.63;;;16.80;99.90;;;;;;5093288;28;20158;-70
2021/09/24 08:12:55;;;;;;;9.23;5.95;;;16.60;99.90;;;;;;5080800;28;20032;-72
2021/09/24 08:15:21;;;;;;;9.90;6.60;;;16.40;99.90;;;;;;5083566;28;20067;-48
2021/09/24 08:17:47;;;;;;;9.23;5.60;;;16.20;99.90;;;;;;5089967;28;20512;-65
2021/09/24 08:20:14;;;;;;;9.65;6.07;;;16.40;99.90;;;;;;5085886;28;20111;-64
2021/09/24 08:22:39;;;;;;;14.55;6.03;;;16.70;99.90;;;;;;5073051;28;20032;-64
2021/09/24 08:25:11;;;;;;;10.80;5.65;;;16.80;99.90;;;;;;5071246;28;20485;-64
2021/09/24 08:27:37;;;;;;;7.75;5.82;;;16.90;99.90;;;;;;5070586;28;20096;-73
2021/09/24 08:30:05;;;;;;;7.78;5.85;;;16.90;99.90;;;;;;5072024;28;20032;-74
2021/09/24 08:32:34;;;;;;;8.52;5.93;;;17.00;99.90;;;;;;5087585;28;20454;-75
2021/09/24 08:35:00;;;;;;;11.30;5.72;;;17.00;99.90;;;;;;5087496;28;20031;-76
2021/09/24 08:37:25;;;;;;;6.38;5.60;;;17.10;99.90;;;;;;5072839;28;20028;-74
2021/09/24 08:39:51;;;;;;;11.05;5.57;;;17.20;99.90;;;;;;5087904;28;20139;-74
2021/09/24 08:42:17;;;;;;;6.18;5.05;;;17.50;99.90;;;;;;5087362;28;20136;-74
2021/09/24 08:44:42;;;;;;;8.70;5.07;;;17.70;99.90;;;;;;5088074;28;20044;-74
2021/09/24 08:47:09;;;;;;;6.63;4.63;;;18.10;99.90;;;;;;5072130;28;20032;-74
2021/09/24 08:49:34;;;;;;;8.60;4.95;;;18.10;99.90;;;;;;5087898;28;20024;-75
2021/09/24 08:52:00;;;;;;;8.02;5.13;;;18.10;99.90;;;;;;5092745;28;20573;-78
2021/09/24 08:54:26;;;;;;;12.60;4.72;;;18.40;99.90;;;;;;5089439;28;20046;-78
2021/09/24 08:56:51;;;;;;;9.25;5.00;;;18.50;99.90;;;;;;5099789;28;20035;-77
2021/09/24 08:59:18;;;;;;;7.95;4.90;;;18.70;99.90;;;;;;5092714;28;20107;-76
2021/09/24 09:02:04;;;;;;;9.75;5.10;;;19.00;99.90;;;;;;5091807;28;20016;-74
2021/09/24 09:04:38;;;;;;;7.03;4.43;;;19.00;99.90;;;;;;5090117;28;20085;-74
2021/09/24 09:07:09;;;;;;;11.30;5.25;;;18.80;99.90;;;;;;5088784;28;20020;-64
2021/09/24 09:09:36;;;;;;;10.25;3.70;;;18.90;99.90;;;;;;5092122;28;20017;-76
2021/09/24 09:12:16;;;;;;;5.70;4.78;;;18.70;99.90;;;;;;5087667;28;20046;-79
2021/09/24 09:15:00;;;;;;;8.40;4.38;;;18.80;99.90;;;;;;5087983;28;20442;-78
2021/09/24 09:17:34;;;;;;;8.90;4.40;;;18.60;99.90;;;;;;5085410;28;20097;-72
2021/09/24 09:20:21;;;;;;;6.50;5.32;;;18.60;99.90;;;;;;5086400;28;20024;-72
2021/09/24 09:23:04;;;;;;;11.30;4.72;;;18.80;99.90;;;;;;5088017;28;20181;-69
2021/09/24 09:25:40;;;;;;;11.40;5.03;;;18.90;99.90;;;;;;5091272;28;20056;-68
2021/09/24 09:28:11;;;;;;;7.35;3.97;;;19.00;99.90;;;;;;5091148;28;20024;-69
2021/09/24 09:30:38;;;;;;;10.50;4.50;;;19.20;99.90;;;;;;5091439;28;20051;-68
2021/09/24 09:33:14;;;;;;;9.63;4.85;;;19.40;99.90;;;;;;5088781;28;20096;-68
2021/09/24 09:35:55;;;;;;;9.18;4.82;;;19.60;99.90;;;;;;5090701;28;20376;-69
2021/09/24 09:38:23;;;;;;;10.27;4.78;;;19.70;99.90;;;;;;5089737;28;20104;-69
2021/09/24 09:40:53;;;;;;;9.02;3.95;;;19.90;99.90;;;;;;5090078;28;20047;-68
2021/09/24 09:43:27;;;;;;;6.45;3.67;;;20.20;99.90;;;;;;5089325;28;20032;-69
2021/09/24 09:45:53;;;;;;;5.43;3.65;;;20.40;99.90;;;;;;5090185;28;20376;-71
2021/09/24 09:48:18;;;;;;;5.00;3.78;;;20.70;99.90;;;;;;5090514;28;20024;-76
2021/09/24 09:50:44;;;;;;;9.70;3.15;;;21.00;99.90;;;;;;5090144;28;20024;-76
2021/09/24 09:53:15;;;;;;;11.25;4.18;;;21.20;99.90;;;;;;5091064;28;20144;-75
2021/09/24 09:56:03;;;;;;;7.63;3.83;;;21.40;99.90;;;;;;5091467;28;20036;-76
2021/09/24 09:58:37;;;;;;;6.25;3.38;;;21.60;99.90;;;;;;5091446;28;20036;-77
2021/09/24 10:01:08;;;;;;;7.30;3.53;;;21.80;99.90;;;;;;5088883;28;20028;-72
2021/09/24 10:03:54;;;;;;;9.20;3.25;;;22.30;99.90;;;;;;5090115;28;20032;-68
2021/09/24 10:06:29;;;;;;;18.15;4.15;;;22.40;99.50;;;;;;5089048;28;20331;-70
2021/09/24 10:08:59;;;;;;;6.65;3.30;;;23.00;99.00;;;;;;5091465;28;20502;-82
2021/09/24 10:11:43;;;;;;;10.57;3.40;;;23.40;99.00;;;;;;5089875;28;20051;-81
2021/09/24 10:14:11;;;;;;;9.88;4.20;;;23.70;98.20;;;;;;5091008;28;20149;-74
2021/09/24 10:16:46;;;;;;;5.80;2.72;;;23.70;97.80;;;;;;5089556;28;20020;-75
2021/09/24 10:19:15;;;;;;;4.60;3.00;;;23.50;97.20;;;;;;5088222;28;20028;-75
2021/09/24 10:21:41;;;;;;;4.68;3.03;;;23.50;97.20;;;;;;5088738;28;20024;-73
2021/09/24 10:24:08;;;;;;;8.70;3.17;;;23.70;96.80;;;;;;5087625;28;20036;-74
2021/09/24 10:26:38;;;;;;;6.15;2.30;;;24.30;96.40;;;;;;5090283;28;20060;-73
2021/09/24 10:29:14;;;;;;;3.05;2.10;;;24.40;95.70;;;;;;5089375;28;20095;-74
2021/09/24 10:31:47;;;;;;;7.28;2.20;;;24.30;95.40;;;;;;5090773;28;20036;-74
2021/09/24 10:34:28;;;;;;;6.22;2.38;;;24.70;94.90;;;;;;5090289;28;20438;-73
2021/09/24 10:36:55;;;;;;;13.20;4.10;;;24.70;94.80;;;;;;5088733;28;20024;-75
2021/09/24 10:39:30;;;;;;;7.75;2.78;;;25.30;94.30;;;;;;5087154;28;20058;-75
2021/09/24 10:42:14;;;;;;;5.35;1.77;;;25.90;93.40;;;;;;5088071;28;20028;-74
2021/09/24 10:45:08;;;;;;;6.53;1.45;;;26.70;92.60;;;;;;5088519;28;20039;-75
2021/09/24 10:47:59;;;;;;;3.85;1.50;;;26.20;91.60;;;;;;5068287;28;20153;-75
2021/09/24 10:50:37;;;;;;;;;;;26.50;91.70;;;;;;5068026;28;20052;-73
2021/09/24 10:53:18;;;;;;;2.53;1.42;;;26.40;90.90;;;;;;5068073;28;19998;-73
2021/09/24 10:55:52;;;;;;;;;;;26.00;90.80;;;;;;5068573;28;20048;-73
2021/09/24 10:58:27;;;;;;;2.85;1.52;;;25.90;91.70;;;;;;5067464;28;20003;-73
2021/09/24 11:00:59;;;;;;;2.67;1.30;;;26.80;92.00;;;;;;5069080;28;20032;-73
2021/09/24 11:03:29;;;;;;;17.15;10.55;;;26.30;94.20;;;;;;5067158;28;20107;-73
2021/09/24 11:06:09;;;;;;;3.17;1.80;;;26.90;91.60;;;;;;5067509;28;20032;-73
2021/09/24 11:08:38;;;;;;;5.53;2.00;;;27.40;89.40;;;;;;5067893;28;20067;-73
2021/09/24 11:11:05;;;;;;;4.95;2.15;;;27.90;89.40;;;;;;5068778;28;20069;-75
2021/09/24 11:13:32;;;;;;;2.88;1.20;;;27.60;87.40;;;;;;5067840;28;20036;-74
2021/09/24 11:16:03;;;;;;;2.90;1.00;;;27.00;88.60;;;;;;5081734;28;20036;-72
2021/09/24 11:18:57;;;;;;;2.63;1.20;;;26.60;88.50;;;;;;5088863;28;20470;-74
2021/09/24 11:21:33;;;;;;;3.00;1.08;;;26.00;89.60;;;;;;5087586;28;20044;-74
2021/09/24 11:24:00;;;;;;;2.88;1.60;;;26.00;90.00;;;;;;5088835;28;20211;-74
2021/09/24 11:26:30;;;;;;;3.13;0.93;;;25.70;90.10;;;;;;5082162;28;20151;-72
2021/09/24 11:29:06;;;;;;;2.53;1.23;;;26.00;90.50;;;;;;5072615;28;20119;-74
2021/09/24 11:31:54;;;;;;;1.73;1.23;;;26.70;90.50;;;;;;5089025;28;20024;-73
2021/09/24 11:34:43;;;;;;;5.68;1.50;;;26.80;90.60;;;;;;5087572;28;20119;-70
2021/09/24 11:37:15;;;;;;;3.42;2.45;;;27.20;89.00;;;;;;5087417;28;20054;-71
2021/09/24 11:39:41;;;;;;;3.80;1.38;;;26.30;90.10;;;;;;5088256;28;20028;-72
2021/09/24 11:42:12;;;;;;;1.55;0.95;;;26.10;90.50;;;;;;5087249;28;20028;-74
2021/09/24 11:44:47;;;;;;;1.70;0.73;;;26.70;90.10;;;;;;5089749;28;20103;-76
2021/09/24 11:47:16;;;;;;;4.30;1.35;;;26.60;88.80;;;;;;5087718;28;20040;-74
2021/09/24 11:50:13;;;;;;;8.43;3.42;;;26.30;89.50;;;;;;5088030;28;20326;-78
2021/09/24 11:52:48;;;;;;;5.03;1.77;;;26.80;90.80;;;;;;5087265;28;20048;-74
2021/09/24 11:55:29;;;;;;;4.40;1.10;;;26.60;88.70;;;;;;5087263;28;20372;-74
2021/09/24 11:58:02;;;;;;;2.63;1.00;;;26.40;90.60;;;;;;5088326;28;20024;-77
2021/09/24 12:00:40;;;;;;;7.07;1.38;;;25.70;90.20;;;;;;5090554;28;20032;-76
2021/09/24 12:03:15;;;;;;;3.53;1.27;;;25.90;89.30;;;;;;5092080;28;20028;-76
2021/09/24 12:05:52;;;;;;;2.60;0.77;;;26.10;91.60;;;;;;5092758;28;20157;-75
2021/09/24 12:08:33;;;;;;;1.98;0.95;;;26.20;88.10;;;;;;5092008;28;20025;-76
2021/09/24 12:11:04;;;;;;;;;;;26.00;88.00;;;;;;5091478;28;20028;-76
2021/09/24 12:13:52;;;;;;;2.17;0.67;;;25.00;90.20;;;;;;5092003;28;20156;-77
2021/09/24 12:16:37;;;;;;;4.05;1.02;;;24.80;90.70;;;;;;5098085;28;20076;-75
2021/09/24 12:19:16;;;;;;;4.35;1.23;;;24.80;91.60;;;;;;5091111;28;20484;-76
2021/09/24 12:21:46;;;;;;;3.20;1.15;;;25.00;91.80;;;;;;5091877;28;20497;-76
2021/09/24 12:24:45;;;;;;;4.00;1.40;;;24.80;91.70;;;;;;5089835;28;20059;-76
2021/09/24 12:27:40;;;;;;;6.15;1.20;;;25.20;91.70;;;;;;5085258;28;20047;-76
2021/09/24 12:30:15;;;;;;;3.10;1.60;;;25.40;91.20;;;;;;5073494;28;20035;-76
2021/09/24 12:32:40;;;;;;;2.75;0.90;;;25.10;91.40;;;;;;5089939;28;20445;-76
2021/09/24 12:35:07;;;;;;;7.20;1.50;;;24.70;92.00;;;;;;5091991;28;20024;-73
2021/09/24 12:37:36;;;;;;;8.48;1.42;;;24.10;92.60;;;;;;5091663;28;20035;-77
2021/09/24 12:40:06;;;;;;;6.60;2.80;;;24.00;92.50;;;;;;5091101;28;20043;-75
2021/09/24 12:42:38;;;;;;;2.58;2.00;;;23.50;93.60;;;;;;5089776;28;20032;-75
2021/09/24 12:45:09;;;;;;;5.35;1.92;;;23.10;94.20;;;;;;5090021;28;20028;-78
2021/09/24 12:47:35;;;;;;;4.57;2.55;;;22.80;94.60;;;;;;5091858;28;20108;-79
2021/09/24 12:50:05;;;;;;;9.35;2.35;;;22.70;95.00;;;;;;5091704;28;20028;-78
2021/09/24 12:52:32;;;;;;;6.28;2.00;;;22.30;95.60;;;;;;5089270;28;20066;-76